Main page
METAR-TAF:

METAR-TAF

Airports :

Cazaux Air Base

Cazaux, France

latitude: 44-32N, longitude: 001-08W, elevation: 25 m

Current weather observation

The report was made 5 minutes ago, at 21:00 UTC
Wind 1 kt from the West/Northwest
Temperature 16°C
Humidity 88%
Pressure 1019 hPa
Visibility 10 km or more
no clouds below 1500 m and no cumulonimbus

METAR: LFBC 282100Z AUTO 30001KT CAVOK 16/14 Q1019 NOSIG

Time: 23:05 (21:05 UTC)

Forecast

The report was made 1 hour and 5 minutes ago, at 20:00 UTC
Forecast valid from 28 at 21 UTC to 29 at 21 UTC
Wind 3 kt from variable directions
Visibility 10 km or more
no clouds below 1500 m and no cumulonimbus
Probability 40% :
Temporary
from 29 at 04 UTC to 29 at 06 UTC
Visibility: 3000 m
Shallow fog

TAF: LFBC 282000Z 2821/2921 VRB03KT CAVOK PROB40 TEMPO 2904/2906 3000 MIFG

Weather observations and forecasts of more than 4000 airports (METAR and TAF reports).

The available stations are represented by yellow and red dots on the map.

Hover mouse over dot to see the name of the station.

Then click to see weather observations and forecasts.

To change the map : click on the green buttons with a black cross to zoom in, on the green button with a dash to zoom out, or on the green arrows for adjacent maps.


METAR-TAF: